Current Weather

Benson

Benson, United Kingdom (EGUB)

Report from: Friday, February 23, 2024 8:50 PM GMT
Current time: Friday, February 23, 2024 9:30 PM GMT

Nearby weather – Weather history – Daily summaries
Weather forecast

Temperature2.0°C (35.6°F)
Wind chill-0.7°C (30.7°F)
Dew point1.0°C (33.8°F)
Winds 5 kts (2.6 m/s, 5.8 mph) South (190°)
Visibility6.2 mi. (10 km)
Clouds Sky clear
Altimeter29.21 in.Hg (989 mB)
Relative humidity93 %
Density altitude-648 ft. (-197 m)
Remarks Fully automated report
No clouds detected
Flight conditions Visual Meteorological Conditions
Raw dataEGUB 232050Z AUTO 19005KT 9999 NCD 02/01 Q0989
An error has occurred. This application may no longer respond until reloaded. Reload 🗙